YQU weather

Grande Prairie Airport
Grande Prairie, Alberta, Canada

Public forecast

Using degrees Celsius for public forecast. Weather courtesy of forecast.io.

Current aviation weather report (METAR) for Grande Prairie Airport

Retrieved 2019/12/10 04:00 UTC (49 minutes ago):

CYQU 100400Z 33004KT 25SM BKN130 M11/M12 A3005 RMK AC5 SLP228

Aviation forecast (TAF) for Grande Prairie Airport

Retrieved 2019-12-10 01:42 UTC (3 hours ago):

TAF CYQU 100038Z 1001/1013 VRB03KT P6SM SCT060 SCT120 TEMPO 1001/1009 SCT010 BKN060 BKN120 FM100900 05005KT P6SM SCT010 BKN080 TEMPO 1009/1013 4SM -SN BKN010 OVC060 RMK NXT FCST BY 100700Z